createdAt,value
2018-08-08T00:00:47.220Z,939.72
2018-08-08T00:01:47.207Z,939.72
2018-08-08T00:02:47.195Z,939.68
2018-08-08T00:03:47.183Z,939.70
2018-08-08T00:04:47.170Z,939.70
2018-08-08T00:05:47.160Z,939.72
2018-08-08T00:06:47.145Z,939.74
2018-08-08T00:07:47.134Z,939.75
2018-08-08T00:08:47.120Z,939.76
2018-08-08T00:09:47.108Z,939.77
2018-08-08T00:10:47.096Z,939.74
2018-08-08T00:11:47.085Z,939.70
2018-08-08T00:12:47.074Z,939.75
2018-08-08T00:13:47.065Z,939.73
2018-08-08T00:14:47.050Z,939.71
2018-08-08T00:15:47.036Z,939.68
2018-08-08T00:16:47.025Z,939.71
2018-08-08T00:17:47.013Z,939.67
2018-08-08T00:18:46.999Z,939.67
2018-08-08T00:19:47.188Z,939.62
2018-08-08T00:20:46.974Z,939.59
2018-08-08T00:21:46.964Z,939.57
2018-08-08T00:22:46.951Z,939.60
2018-08-08T00:23:46.939Z,939.58
2018-08-08T00:24:46.926Z,939.62
2018-08-08T00:25:47.014Z,939.63
2018-08-08T00:26:46.904Z,939.64
2018-08-08T00:27:46.890Z,939.63
2018-08-08T00:28:46.881Z,939.65
2018-08-08T00:29:46.866Z,939.65
2018-08-08T00:30:46.854Z,939.63
2018-08-08T00:31:46.842Z,939.61
2018-08-08T00:32:46.829Z,939.62
2018-08-08T00:33:46.820Z,939.62
2018-08-08T00:34:46.805Z,939.63
2018-08-08T00:35:46.794Z,939.61
2018-08-08T00:36:46.780Z,939.60
2018-08-08T00:37:46.769Z,939.59
2018-08-08T00:38:46.760Z,939.59
2018-08-08T00:39:46.747Z,939.57
2018-08-08T00:40:46.732Z,939.59
2018-08-08T00:41:46.729Z,939.59
2018-08-08T00:42:46.709Z,939.60
2018-08-08T00:43:46.704Z,939.61
2018-08-08T00:44:46.690Z,939.61
2018-08-08T00:45:46.678Z,939.63
2018-08-08T00:46:46.666Z,939.65
2018-08-08T00:47:46.654Z,939.65
2018-08-08T00:48:46.644Z,939.63
2018-08-08T00:49:46.731Z,939.67
2018-08-08T00:50:46.623Z,939.66
2018-08-08T00:51:46.608Z,939.63
2018-08-08T00:52:46.600Z,939.66
2018-08-08T00:53:46.582Z,939.60
2018-08-08T00:54:46.570Z,939.61
2018-08-08T00:55:46.560Z,939.64
2018-08-08T00:56:46.550Z,939.60
2018-08-08T00:57:46.535Z,939.63
2018-08-08T00:58:46.525Z,939.64
2018-08-08T00:59:46.511Z,939.61
2018-08-08T01:00:46.500Z,939.62
2018-08-08T01:01:46.487Z,939.61
2018-08-08T01:02:46.475Z,939.65
2018-08-08T01:03:46.465Z,939.63
2018-08-08T01:04:46.452Z,939.61
2018-08-08T01:05:46.441Z,939.64
2018-08-08T01:06:46.430Z,939.56
2018-08-08T01:07:46.418Z,939.61
2018-08-08T01:08:46.559Z,939.60
2018-08-08T01:09:46.393Z,939.61
2018-08-08T01:10:46.382Z,939.62
2018-08-08T01:11:46.369Z,939.62
2018-08-08T01:12:46.356Z,939.66
2018-08-08T01:13:46.345Z,939.63
2018-08-08T01:14:46.334Z,939.64
2018-08-08T01:15:46.324Z,939.63
2018-08-08T01:16:46.310Z,939.66
2018-08-08T01:17:46.299Z,939.62
2018-08-08T01:18:46.288Z,939.60
2018-08-08T01:19:46.476Z,939.62
2018-08-08T01:20:46.262Z,939.63
2018-08-08T01:21:46.254Z,939.65
2018-08-08T01:22:46.240Z,939.68
2018-08-08T01:23:46.230Z,939.65
2018-08-08T01:24:46.217Z,939.64
2018-08-08T01:25:46.305Z,939.61
2018-08-08T01:26:46.194Z,939.64
2018-08-08T01:27:46.180Z,939.65
2018-08-08T01:28:46.169Z,939.62
2018-08-08T01:29:46.156Z,939.65
2018-08-08T01:30:46.147Z,939.58
2018-08-08T01:31:46.135Z,939.58
2018-08-08T01:32:46.124Z,939.60
2018-08-08T01:33:46.110Z,939.62
2018-08-08T01:34:46.099Z,939.60
2018-08-08T01:35:46.090Z,939.61
2018-08-08T01:36:46.073Z,939.59
2018-08-08T01:37:46.063Z,939.59
2018-08-08T01:38:46.052Z,939.59
2018-08-08T01:39:46.039Z,939.59
2018-08-08T01:40:46.031Z,939.56
2018-08-08T01:41:46.017Z,939.51
2018-08-08T01:42:46.008Z,939.53
2018-08-08T01:43:45.992Z,939.56
2018-08-08T01:44:45.981Z,939.58
2018-08-08T01:45:46.024Z,939.59
2018-08-08T01:46:45.957Z,939.61
2018-08-08T01:47:45.945Z,939.55
2018-08-08T01:48:45.934Z,939.57
2018-08-08T01:49:45.921Z,939.62
2018-08-08T01:50:45.911Z,939.64
2018-08-08T01:51:45.898Z,939.67
2018-08-08T01:52:45.887Z,939.68
2018-08-08T01:53:45.873Z,939.69
2018-08-08T01:54:45.864Z,939.67
2018-08-08T01:55:45.950Z,939.70
2018-08-08T01:56:45.840Z,939.65
2018-08-08T01:57:45.828Z,939.66
2018-08-08T01:58:45.816Z,939.64
2018-08-08T01:59:45.805Z,939.68
2018-08-08T02:00:45.796Z,939.66
2018-08-08T02:01:45.779Z,939.69
2018-08-08T02:02:45.772Z,939.71
2018-08-08T02:03:45.756Z,939.72
2018-08-08T02:04:45.746Z,939.74
2018-08-08T02:05:45.733Z,939.73
2018-08-08T02:06:45.722Z,939.76
2018-08-08T02:07:45.810Z,939.68
2018-08-08T02:08:45.698Z,939.74
2018-08-08T02:09:45.685Z,939.74
2018-08-08T02:10:45.675Z,939.70
2018-08-08T02:11:45.663Z,939.70
2018-08-08T02:12:45.649Z,939.67
2018-08-08T02:13:45.639Z,939.69
2018-08-08T02:14:45.626Z,939.75
2018-08-08T02:15:45.617Z,939.72
2018-08-08T02:16:45.604Z,939.76
2018-08-08T02:17:45.593Z,939.77
2018-08-08T02:18:45.580Z,939.77
2018-08-08T02:19:45.770Z,939.77
2018-08-08T02:20:45.554Z,939.80
2018-08-08T02:21:45.544Z,939.79
2018-08-08T02:22:45.532Z,939.80
2018-08-08T02:23:45.522Z,939.79
2018-08-08T02:24:45.509Z,939.81
2018-08-08T02:25:45.496Z,939.81
2018-08-08T02:26:45.484Z,939.82
2018-08-08T02:27:45.473Z,939.78
2018-08-08T02:28:45.460Z,939.80
2018-08-08T02:29:45.452Z,939.83
2018-08-08T02:30:45.437Z,939.79
2018-08-08T02:31:45.577Z,939.77
2018-08-08T02:32:45.413Z,939.77
2018-08-08T02:33:45.404Z,939.75
2018-08-08T02:34:45.392Z,939.73
2018-08-08T02:35:45.384Z,939.74
2018-08-08T02:36:45.367Z,939.68
2018-08-08T02:37:45.458Z,939.67
2018-08-08T02:38:45.345Z,939.62
2018-08-08T02:39:45.334Z,939.61
2018-08-08T02:40:45.319Z,939.60
2018-08-08T02:41:45.308Z,939.64
2018-08-08T02:42:45.301Z,939.65
2018-08-08T02:43:45.285Z,939.64
2018-08-08T02:44:45.274Z,939.63
2018-08-08T02:45:45.262Z,939.58
2018-08-08T02:46:45.249Z,939.58
2018-08-08T02:47:45.238Z,939.58
2018-08-08T02:48:45.226Z,939.52
2018-08-08T02:49:45.214Z,939.53
2018-08-08T02:50:45.218Z,939.50
2018-08-08T02:51:45.191Z,939.48
2018-08-08T02:52:45.186Z,939.52
2018-08-08T02:53:45.166Z,939.50
2018-08-08T02:54:45.158Z,939.56
2018-08-08T02:55:45.145Z,939.51
2018-08-08T02:56:45.136Z,939.56
2018-08-08T02:57:45.119Z,939.57
2018-08-08T02:58:45.110Z,939.62
2018-08-08T02:59:45.098Z,939.61
2018-08-08T03:00:45.088Z,939.62
2018-08-08T03:01:45.073Z,939.64
2018-08-08T03:02:45.084Z,939.64
2018-08-08T03:03:45.050Z,939.64
2018-08-08T03:04:45.040Z,939.66
2018-08-08T03:05:45.027Z,939.64
2018-08-08T03:06:45.015Z,939.55
2018-08-08T03:07:45.105Z,939.58
2018-08-08T03:08:44.991Z,939.58
2018-08-08T03:09:44.979Z,939.55
2018-08-08T03:10:44.972Z,939.54
2018-08-08T03:11:44.958Z,939.57
2018-08-08T03:12:44.945Z,939.52
2018-08-08T03:13:45.033Z,939.51
2018-08-08T03:14:44.921Z,939.54
2018-08-08T03:15:44.912Z,939.51
2018-08-08T03:16:44.897Z,939.54
2018-08-08T03:17:44.886Z,939.56
2018-08-08T03:18:44.874Z,939.58
2018-08-08T03:19:44.881Z,939.57
2018-08-08T03:20:44.856Z,939.58
2018-08-08T03:21:44.846Z,939.59
2018-08-08T03:22:44.828Z,939.61
2018-08-08T03:23:44.816Z,939.54
2018-08-08T03:24:44.804Z,939.57
2018-08-08T03:25:44.893Z,939.56
2018-08-08T03:26:44.784Z,939.53
2018-08-08T03:27:44.772Z,939.50
2018-08-08T03:28:44.757Z,939.53
2018-08-08T03:29:44.746Z,939.51
2018-08-08T03:30:44.736Z,939.50
2018-08-08T03:31:44.824Z,939.47
2018-08-08T03:32:44.711Z,939.48
2018-08-08T03:33:44.700Z,939.46
2018-08-08T03:34:44.689Z,939.48
2018-08-08T03:35:44.676Z,939.45
2018-08-08T03:36:44.666Z,939.47
2018-08-08T03:37:44.754Z,939.45
2018-08-08T03:38:44.641Z,939.41
2018-08-08T03:39:44.630Z,939.43
2018-08-08T03:40:44.619Z,939.41
2018-08-08T03:41:44.606Z,939.41
2018-08-08T03:42:44.600Z,939.41
2018-08-08T03:43:44.684Z,939.43
2018-08-08T03:44:44.573Z,939.40
2018-08-08T03:45:44.561Z,939.44
2018-08-08T03:46:44.551Z,939.41
2018-08-08T03:47:44.538Z,939.40
2018-08-08T03:48:44.527Z,939.46
2018-08-08T03:49:44.715Z,939.42
2018-08-08T03:50:44.502Z,939.38
2018-08-08T03:51:44.493Z,939.36
2018-08-08T03:52:44.487Z,939.34
2018-08-08T03:53:44.466Z,939.34
2018-08-08T03:54:44.456Z,939.36
2018-08-08T03:55:44.445Z,939.32
2018-08-08T03:56:44.432Z,939.29
2018-08-08T03:57:44.437Z,939.25
2018-08-08T03:58:44.409Z,939.26
2018-08-08T03:59:44.397Z,939.25
2018-08-08T04:00:44.401Z,939.26
2018-08-08T04:01:44.396Z,939.26
2018-08-08T04:02:44.459Z,939.23
2018-08-08T04:03:44.355Z,939.24
2018-08-08T04:04:44.341Z,939.27
2018-08-08T04:05:44.327Z,939.24
2018-08-08T04:06:44.316Z,939.22
2018-08-08T04:07:44.504Z,939.21
2018-08-08T04:08:44.293Z,939.16
2018-08-08T04:09:44.281Z,939.18
2018-08-08T04:10:44.270Z,939.20
2018-08-08T04:11:44.257Z,939.22
2018-08-08T04:12:44.246Z,939.22
2018-08-08T04:13:44.334Z,939.27
2018-08-08T04:14:44.223Z,939.23
2018-08-08T04:15:44.213Z,939.24
2018-08-08T04:16:44.199Z,939.27
2018-08-08T04:17:44.188Z,939.27
2018-08-08T04:18:44.181Z,939.23
2018-08-08T04:19:44.317Z,939.22
2018-08-08T04:20:44.153Z,939.21
2018-08-08T04:21:44.141Z,939.18
2018-08-08T04:22:44.130Z,939.19
2018-08-08T04:23:44.120Z,939.16
2018-08-08T04:24:44.108Z,939.15
2018-08-08T04:25:44.195Z,939.15
2018-08-08T04:26:44.084Z,939.13
2018-08-08T04:27:44.072Z,939.06
2018-08-08T04:28:44.062Z,939.08
2018-08-08T04:29:44.049Z,939.01
2018-08-08T04:30:44.042Z,939.00
2018-08-08T04:31:44.029Z,939.00
2018-08-08T04:32:44.017Z,938.96
2018-08-08T04:33:44.005Z,938.94
2018-08-08T04:34:43.993Z,938.97
2018-08-08T04:35:43.987Z,938.92
2018-08-08T04:36:43.967Z,938.91
2018-08-08T04:37:43.958Z,938.87
2018-08-08T04:38:43.944Z,938.87
2018-08-08T04:43:13.928Z,938.88
2018-08-08T04:44:13.914Z,938.92
2018-08-08T04:45:13.905Z,938.94
2018-08-08T04:46:13.893Z,938.92
2018-08-08T04:47:13.881Z,938.86
2018-08-08T04:48:13.870Z,938.88
2018-08-08T04:49:13.859Z,938.84
2018-08-08T04:50:13.845Z,938.80
2018-08-08T04:51:13.834Z,938.84
2018-08-08T04:52:13.823Z,938.81
2018-08-08T04:53:13.811Z,938.79
2018-08-08T04:54:13.816Z,938.80
2018-08-08T04:55:13.938Z,938.77
2018-08-08T04:56:13.776Z,938.75
2018-08-08T04:57:13.765Z,938.80
2018-08-08T04:58:13.755Z,938.76
2018-08-08T04:59:13.737Z,938.74
2018-08-08T05:00:13.797Z,938.78
2018-08-08T05:01:13.714Z,938.78
2018-08-08T05:02:13.703Z,938.72
2018-08-08T05:03:13.692Z,938.74
2018-08-08T05:04:13.680Z,938.70
2018-08-08T05:05:13.669Z,938.71
2018-08-08T05:06:13.662Z,938.71
2018-08-08T05:07:13.746Z,938.70
2018-08-08T05:08:13.634Z,938.76
2018-08-08T05:09:13.623Z,938.71
2018-08-08T05:10:13.629Z,938.70
2018-08-08T05:11:13.601Z,938.68
2018-08-08T05:12:13.589Z,938.67
2018-08-08T05:13:13.577Z,938.68
2018-08-08T05:14:13.569Z,938.65
2018-08-08T05:15:13.558Z,938.66
2018-08-08T05:16:13.542Z,938.72
2018-08-08T05:17:13.531Z,938.73
2018-08-08T05:18:13.520Z,938.76
2018-08-08T05:19:13.509Z,938.79
2018-08-08T05:20:13.615Z,938.71
2018-08-08T05:21:13.486Z,938.75
2018-08-08T05:22:13.474Z,938.77
2018-08-08T05:23:13.463Z,938.78
2018-08-08T05:24:13.451Z,938.79
2018-08-08T05:25:13.540Z,938.74
2018-08-08T05:26:13.428Z,938.75
2018-08-08T05:27:13.417Z,938.74
2018-08-08T05:28:13.405Z,938.73
2018-08-08T05:29:13.394Z,938.72
2018-08-08T05:30:13.387Z,938.69
2018-08-08T05:31:13.371Z,938.67
2018-08-08T05:32:13.377Z,938.64
2018-08-08T05:33:13.349Z,938.63
2018-08-08T05:34:13.336Z,938.61
2018-08-08T05:35:13.325Z,938.59
2018-08-08T05:36:13.316Z,938.58
2018-08-08T05:37:13.402Z,938.57
2018-08-08T05:38:13.291Z,938.55
2018-08-08T05:39:13.280Z,938.51
2018-08-08T05:40:13.267Z,938.48
2018-08-08T05:41:13.275Z,938.51
2018-08-08T05:42:13.246Z,938.47
2018-08-08T05:43:13.234Z,938.46
2018-08-08T05:44:13.226Z,938.46
2018-08-08T05:45:13.211Z,938.46
2018-08-08T05:46:13.199Z,938.48
2018-08-08T05:47:13.189Z,938.47
2018-08-08T05:48:13.177Z,938.46
2018-08-08T05:49:13.390Z,938.38
2018-08-08T05:50:13.158Z,938.41
2018-08-08T05:51:13.143Z,938.40
2018-08-08T05:52:13.133Z,938.38
2018-08-08T05:53:13.120Z,938.34
2018-08-08T05:54:13.108Z,938.36
2018-08-08T05:55:13.098Z,938.34
2018-08-08T05:56:13.085Z,938.33
2018-08-08T05:57:13.075Z,938.35
2018-08-08T05:58:13.067Z,938.35
2018-08-08T05:59:13.052Z,938.32
2018-08-08T06:00:13.040Z,938.37
2018-08-08T06:01:13.029Z,938.34
2018-08-08T06:02:13.018Z,938.36
2018-08-08T06:03:13.006Z,938.33
2018-08-08T06:04:12.995Z,938.38
2018-08-08T06:05:12.984Z,938.40
2018-08-08T06:06:12.972Z,938.36
2018-08-08T06:07:13.061Z,938.36
2018-08-08T06:08:12.981Z,938.41
2018-08-08T06:09:12.938Z,938.35
2018-08-08T06:10:12.929Z,938.36
2018-08-08T06:11:12.916Z,938.37
2018-08-08T06:12:12.906Z,938.36
2018-08-08T06:13:12.892Z,938.33
2018-08-08T06:14:12.881Z,938.31
2018-08-08T06:15:12.870Z,938.35
2018-08-08T06:16:12.857Z,938.38
2018-08-08T06:17:12.847Z,938.35
2018-08-08T06:18:12.838Z,938.36
2018-08-08T06:19:12.824Z,938.33
2018-08-08T06:20:12.814Z,938.38
2018-08-08T06:21:12.801Z,938.41
2018-08-08T06:22:12.789Z,938.43
2018-08-08T06:23:12.778Z,938.40
2018-08-08T06:24:12.766Z,938.37
2018-08-08T06:25:12.859Z,938.35
2018-08-08T06:26:12.743Z,938.36
2018-08-08T06:27:12.732Z,938.34
2018-08-08T06:28:12.720Z,938.36
2018-08-08T06:29:12.711Z,938.36
2018-08-08T06:30:12.698Z,938.39
2018-08-08T06:31:12.687Z,938.40
2018-08-08T06:32:12.675Z,938.38
2018-08-08T06:33:12.667Z,938.35
2018-08-08T06:34:12.655Z,938.37
2018-08-08T06:35:12.644Z,938.37
2018-08-08T06:36:12.631Z,938.33
2018-08-08T06:37:12.770Z,938.34
2018-08-08T06:38:12.608Z,938.33
2018-08-08T06:39:12.598Z,938.33
2018-08-08T06:40:12.588Z,938.34
2018-08-08T06:41:12.574Z,938.36
2018-08-08T06:42:12.564Z,938.35
2018-08-08T06:43:12.654Z,938.33
2018-08-08T06:44:12.594Z,938.32
2018-08-08T06:45:12.532Z,938.32
2018-08-08T06:46:12.519Z,938.30
2018-08-08T06:47:12.508Z,938.31
2018-08-08T06:48:12.496Z,938.29
2018-08-08T06:49:12.485Z,938.32
2018-08-08T06:50:12.475Z,938.30
2018-08-08T06:51:12.463Z,938.31
2018-08-08T06:52:12.451Z,938.25
2018-08-08T06:53:12.440Z,938.26
2018-08-08T06:54:12.430Z,938.27
2018-08-08T06:55:12.418Z,938.26
2018-08-08T06:56:12.406Z,938.26
2018-08-08T06:57:12.396Z,938.23
2018-08-08T06:58:12.386Z,938.29
2018-08-08T06:59:12.373Z,938.25
2018-08-08T07:00:12.361Z,938.25
2018-08-08T07:01:12.350Z,938.25
2018-08-08T07:02:12.339Z,938.25
2018-08-08T07:03:12.327Z,938.21
2018-08-08T07:04:12.316Z,938.26
2018-08-08T07:05:12.304Z,938.22
2018-08-08T07:06:12.293Z,938.22
2018-08-08T07:07:12.282Z,938.21
2018-08-08T07:08:12.270Z,938.25
2018-08-08T07:09:12.259Z,938.25
2018-08-08T07:10:12.249Z,938.24
2018-08-08T07:11:12.236Z,938.22
2018-08-08T07:12:12.227Z,938.22
2018-08-08T07:13:12.216Z,938.26
2018-08-08T07:14:12.241Z,938.29
2018-08-08T07:15:12.191Z,938.25
2018-08-08T07:16:12.180Z,938.26
2018-08-08T07:17:12.168Z,938.27
2018-08-08T07:18:12.157Z,938.28
2018-08-08T07:19:12.247Z,938.30
2018-08-08T07:20:12.137Z,938.29
2018-08-08T07:21:12.122Z,938.33
2018-08-08T07:22:12.113Z,938.31
2018-08-08T07:23:12.100Z,938.34
2018-08-08T07:24:12.092Z,938.32
2018-08-08T07:25:12.327Z,938.34
2018-08-08T07:26:12.066Z,938.38
2018-08-08T07:27:12.055Z,938.36
2018-08-08T07:28:12.043Z,938.36
2018-08-08T07:29:12.032Z,938.38
2018-08-08T07:30:12.021Z,938.39
2018-08-08T07:31:12.210Z,938.37
2018-08-08T07:32:12.049Z,938.40
2018-08-08T07:33:11.989Z,938.43
2018-08-08T07:34:11.977Z,938.38
2018-08-08T07:35:11.967Z,938.40
2018-08-08T07:36:11.952Z,938.41
2018-08-08T07:37:11.941Z,938.41
2018-08-08T07:38:11.932Z,938.41
2018-08-08T07:39:11.919Z,938.40
2018-08-08T07:40:11.910Z,938.41
2018-08-08T07:41:11.944Z,938.42
2018-08-08T07:42:11.885Z,938.46
2018-08-08T07:43:11.974Z,938.45
2018-08-08T07:44:11.862Z,938.43
2018-08-08T07:45:11.852Z,938.44
2018-08-08T07:46:11.851Z,938.47
2018-08-08T07:47:11.829Z,938.47
2018-08-08T07:48:11.818Z,938.48
2018-08-08T07:49:11.808Z,938.50
2018-08-08T07:50:11.796Z,938.50
2018-08-08T07:51:11.785Z,938.52
2018-08-08T07:52:11.773Z,938.52
2018-08-08T07:53:11.763Z,938.50
2018-08-08T07:54:11.754Z,938.48
2018-08-08T07:55:11.942Z,938.52
2018-08-08T07:56:11.729Z,938.51
2018-08-08T07:57:11.717Z,938.51
2018-08-08T07:58:11.795Z,938.53
2018-08-08T07:59:11.696Z,938.54
2018-08-08T08:00:11.684Z,938.59
2018-08-08T08:01:11.873Z,938.60
2018-08-08T08:02:11.662Z,938.60
2018-08-08T08:03:11.654Z,938.62
2018-08-08T08:04:11.640Z,938.63
2018-08-08T08:05:11.629Z,938.63
2018-08-08T08:06:11.618Z,938.66
2018-08-08T08:07:11.607Z,938.65
2018-08-08T08:08:11.595Z,938.67
2018-08-08T08:09:11.584Z,938.64
2018-08-08T08:10:11.573Z,938.68
2018-08-08T08:11:11.564Z,938.62
2018-08-08T08:12:11.552Z,938.69
2018-08-08T08:13:11.539Z,938.65
2018-08-08T08:14:11.530Z,938.60
2018-08-08T08:15:11.520Z,938.62
2018-08-08T08:16:11.506Z,938.61
2018-08-08T08:17:11.496Z,938.61
2018-08-08T08:18:11.484Z,938.64
2018-08-08T08:19:11.472Z,938.66
2018-08-08T08:20:11.460Z,938.65
2018-08-08T08:21:11.449Z,938.63
2018-08-08T08:22:11.439Z,938.65
2018-08-08T08:23:11.484Z,938.68
2018-08-08T08:24:11.417Z,938.64
2018-08-08T08:25:11.404Z,938.66
2018-08-08T08:26:11.392Z,938.69
2018-08-08T08:27:11.382Z,938.69
2018-08-08T08:28:11.369Z,938.70
2018-08-08T08:29:11.358Z,938.70
2018-08-08T08:30:11.347Z,938.70
2018-08-08T08:31:11.436Z,938.73
2018-08-08T08:32:11.323Z,938.73
2018-08-08T08:33:11.312Z,938.73
2018-08-08T08:34:11.302Z,938.79
2018-08-08T08:35:11.290Z,938.79
2018-08-08T08:36:11.279Z,938.78
2018-08-08T08:37:11.268Z,938.80
2018-08-08T08:38:11.266Z,938.76
2018-08-08T08:39:11.245Z,938.76
2018-08-08T08:40:11.233Z,938.78
2018-08-08T08:41:11.222Z,938.80
2018-08-08T08:42:11.210Z,938.83
2018-08-08T08:43:11.202Z,938.83
2018-08-08T08:44:11.188Z,938.81
2018-08-08T08:45:11.177Z,938.83
2018-08-08T08:46:11.165Z,938.87
2018-08-08T08:47:11.155Z,938.84
2018-08-08T08:48:11.144Z,938.85
2018-08-08T08:49:11.131Z,938.85
2018-08-08T08:50:11.193Z,938.86
2018-08-08T08:51:11.111Z,938.90
2018-08-08T08:52:11.098Z,938.90
2018-08-08T08:53:11.088Z,938.97
2018-08-08T08:54:11.076Z,938.95
2018-08-08T08:55:11.164Z,938.99
2018-08-08T08:56:11.054Z,939.03
2018-08-08T08:57:11.041Z,939.06
2018-08-08T08:58:11.030Z,939.06
2018-08-08T08:59:11.019Z,939.06
2018-08-08T09:00:11.010Z,939.07
2018-08-08T09:01:10.996Z,939.05
2018-08-08T09:02:10.984Z,939.08
2018-08-08T09:03:10.973Z,939.06
2018-08-08T09:04:10.961Z,939.09
2018-08-08T09:05:10.951Z,939.09
2018-08-08T09:06:10.939Z,939.11
2018-08-08T09:07:10.927Z,939.10
2018-08-08T09:08:10.918Z,939.12
2018-08-08T09:09:10.904Z,939.16
2018-08-08T09:10:10.893Z,939.16
2018-08-08T09:11:10.883Z,939.17
2018-08-08T09:12:10.881Z,939.16
2018-08-08T09:13:10.859Z,939.16
2018-08-08T09:14:10.849Z,939.18
2018-08-08T09:15:10.838Z,939.17
2018-08-08T09:16:10.825Z,939.17
2018-08-08T09:17:10.815Z,939.17
2018-08-08T09:18:10.803Z,939.16
2018-08-08T09:19:10.792Z,939.18
2018-08-08T09:20:10.780Z,939.16
2018-08-08T09:21:10.769Z,939.19
2018-08-08T09:22:10.758Z,939.18
2018-08-08T09:23:10.748Z,939.18
2018-08-08T09:24:10.742Z,939.24
2018-08-08T09:25:10.927Z,939.25
2018-08-08T09:26:10.713Z,939.23
2018-08-08T09:27:10.708Z,939.22
2018-08-08T09:28:10.690Z,939.24
2018-08-08T09:29:10.680Z,939.24
2018-08-08T09:30:10.668Z,939.22
2018-08-08T09:31:10.758Z,939.23
2018-08-08T09:32:10.646Z,939.17
2018-08-08T09:33:10.635Z,939.20
2018-08-08T09:34:10.624Z,939.26
2018-08-08T09:35:10.614Z,939.28
2018-08-08T09:36:10.601Z,939.27
2018-08-08T09:37:10.589Z,939.28
2018-08-08T09:38:10.582Z,939.31
2018-08-08T09:39:10.568Z,939.34
2018-08-08T09:40:10.628Z,939.29
2018-08-08T09:41:10.545Z,939.25
2018-08-08T09:42:10.535Z,939.22
2018-08-08T09:43:10.524Z,939.24
2018-08-08T09:44:10.565Z,939.24
2018-08-08T09:45:10.501Z,939.24
2018-08-08T09:46:10.489Z,939.27
2018-08-08T09:47:10.479Z,939.31
2018-08-08T09:48:10.467Z,939.28
2018-08-08T09:49:10.458Z,939.25
2018-08-08T09:50:10.445Z,939.26
2018-08-08T09:51:10.591Z,939.29
2018-08-08T09:52:10.422Z,939.28
2018-08-08T09:53:10.411Z,939.29
2018-08-08T09:54:10.401Z,939.27
2018-08-08T09:55:10.389Z,939.26
2018-08-08T09:56:10.378Z,939.29
2018-08-08T09:57:10.366Z,939.27
2018-08-08T09:58:10.355Z,939.26
2018-08-08T09:59:10.345Z,939.28
2018-08-08T10:00:10.333Z,939.34
2018-08-08T10:01:10.523Z,939.34
2018-08-08T10:02:10.311Z,939.30
2018-08-08T10:03:10.299Z,939.36
2018-08-08T10:04:10.288Z,939.28
2018-08-08T10:05:10.277Z,939.33
2018-08-08T10:06:10.266Z,939.29
2018-08-08T10:07:10.255Z,939.30
2018-08-08T10:08:10.243Z,939.32
2018-08-08T10:09:10.232Z,939.36
2018-08-08T10:10:10.222Z,939.39
2018-08-08T10:11:10.211Z,939.40
2018-08-08T10:12:10.254Z,939.40
2018-08-08T10:13:10.188Z,939.43
2018-08-08T10:14:10.178Z,939.46
2018-08-08T10:15:10.166Z,939.46
2018-08-08T10:16:10.155Z,939.46
2018-08-08T10:17:10.144Z,939.47
2018-08-08T10:18:10.135Z,939.46
2018-08-08T10:19:10.124Z,939.48
2018-08-08T10:20:10.111Z,939.48
2018-08-08T10:21:10.100Z,939.47
2018-08-08T10:22:10.090Z,939.47
2018-08-08T10:23:10.078Z,939.42
2018-08-08T10:24:10.068Z,939.40
2018-08-08T10:25:10.056Z,939.44
2018-08-08T10:26:10.045Z,939.41
2018-08-08T10:27:10.053Z,939.37
2018-08-08T10:28:10.028Z,939.43
2018-08-08T10:29:10.013Z,939.46
2018-08-08T10:30:10.001Z,939.47
2018-08-08T10:31:10.144Z,939.53
2018-08-08T10:32:09.981Z,939.60
2018-08-08T10:33:09.968Z,939.54
2018-08-08T10:34:09.957Z,939.58
2018-08-08T10:35:09.946Z,939.55
2018-08-08T10:36:09.934Z,939.59
2018-08-08T10:37:10.123Z,939.59
2018-08-08T10:38:09.913Z,939.63
2018-08-08T10:39:09.903Z,939.68
2018-08-08T10:40:09.892Z,939.67
2018-08-08T10:41:09.904Z,939.69
2018-08-08T10:42:09.869Z,939.67
2018-08-08T10:43:09.860Z,939.69
2018-08-08T10:44:09.846Z,939.69
2018-08-08T10:45:09.835Z,939.72
2018-08-08T10:46:09.825Z,939.76
2018-08-08T10:47:09.815Z,939.76
2018-08-08T10:48:09.802Z,939.77
2018-08-08T10:49:09.791Z,939.77
2018-08-08T10:50:09.781Z,939.73
2018-08-08T10:51:09.770Z,939.78
2018-08-08T10:52:09.761Z,939.80
2018-08-08T10:53:09.748Z,939.81
2018-08-08T10:54:09.738Z,939.86
2018-08-08T10:55:09.726Z,939.89
2018-08-08T10:56:09.760Z,939.90
2018-08-08T10:57:09.704Z,939.96
2018-08-08T10:58:09.703Z,939.96
2018-08-08T10:59:09.683Z,940.01
2018-08-08T11:00:09.672Z,940.01
2018-08-08T11:01:09.661Z,940.02
2018-08-08T11:02:09.651Z,940.05
2018-08-08T11:03:09.685Z,940.04
2018-08-08T11:04:09.631Z,940.05
2018-08-08T11:05:09.619Z,940.07
2018-08-08T11:06:09.608Z,940.10
2018-08-08T11:07:09.598Z,940.10
2018-08-08T11:08:09.590Z,940.05
2018-08-08T11:09:09.619Z,940.09
2018-08-08T11:10:09.565Z,940.11
2018-08-08T11:11:09.555Z,940.10
2018-08-08T11:12:09.549Z,940.12
2018-08-08T11:13:09.533Z,940.13
2018-08-08T11:14:09.523Z,940.11
2018-08-08T11:15:09.513Z,940.16
2018-08-08T11:16:09.502Z,940.18
2018-08-08T11:17:09.495Z,940.17
2018-08-08T11:18:09.481Z,940.17
2018-08-08T11:19:09.470Z,940.20
2018-08-08T11:20:09.458Z,940.19
2018-08-08T11:21:09.448Z,940.27
2018-08-08T11:22:09.440Z,940.25
2018-08-08T11:23:09.429Z,940.21
2018-08-08T11:24:09.416Z,940.19
2018-08-08T11:25:09.406Z,940.24
2018-08-08T11:26:09.395Z,940.22
2018-08-08T11:27:09.385Z,940.25
2018-08-08T11:28:09.375Z,940.27
2018-08-08T11:29:09.364Z,940.28
2018-08-08T11:30:09.353Z,940.26
2018-08-08T11:31:09.343Z,940.25
2018-08-08T11:32:09.332Z,940.27
2018-08-08T11:33:09.322Z,940.26
2018-08-08T11:34:09.312Z,940.31
2018-08-08T11:35:09.302Z,940.30
2018-08-08T11:36:09.291Z,940.28
2018-08-08T11:37:09.282Z,940.27
2018-08-08T11:38:09.269Z,940.30
2018-08-08T11:39:09.263Z,940.33
2018-08-08T11:40:09.253Z,940.36
2018-08-08T11:41:09.239Z,940.36
2018-08-08T11:42:09.228Z,940.35
2018-08-08T11:43:09.219Z,940.36
2018-08-08T11:44:09.207Z,940.37
2018-08-08T11:45:09.197Z,940.38
2018-08-08T11:46:09.189Z,940.37
2018-08-08T11:47:09.181Z,940.38
2018-08-08T11:48:09.166Z,940.36
2018-08-08T11:49:09.156Z,940.40
2018-08-08T11:50:09.146Z,940.41
2018-08-08T11:51:09.136Z,940.39
2018-08-08T11:52:09.177Z,940.42
2018-08-08T11:53:09.116Z,940.36
2018-08-08T11:54:09.107Z,940.39
2018-08-08T11:55:09.096Z,940.39
2018-08-08T11:56:09.084Z,940.45
2018-08-08T11:57:09.076Z,940.43
2018-08-08T11:58:09.068Z,940.39
2018-08-08T11:59:09.072Z,940.43
2018-08-08T12:00:09.045Z,940.42
2018-08-08T12:01:09.037Z,940.42
2018-08-08T12:02:09.025Z,940.45
2018-08-08T12:03:09.016Z,940.48
2018-08-08T12:04:09.006Z,940.46
2018-08-08T12:05:09.000Z,940.44
2018-08-08T12:06:08.993Z,940.42
2018-08-08T12:07:08.977Z,940.39
2018-08-08T12:08:08.966Z,940.41
2018-08-08T12:09:08.956Z,940.41
2018-08-08T12:10:08.947Z,940.45
2018-08-08T12:11:08.938Z,940.43
2018-08-08T12:12:08.976Z,940.41
2018-08-08T12:13:09.066Z,940.40
2018-08-08T12:14:08.906Z,940.43
2018-08-08T12:15:08.897Z,940.39
2018-08-08T12:16:08.886Z,940.38
2018-08-08T12:17:08.876Z,940.36
2018-08-08T12:18:08.866Z,940.41
2018-08-08T12:19:08.867Z,940.40
2018-08-08T12:20:08.846Z,940.36
2018-08-08T12:21:08.840Z,940.33
2018-08-08T12:22:08.833Z,940.32
2018-08-08T12:23:08.818Z,940.36
2018-08-08T12:24:08.807Z,940.34
2018-08-08T12:25:08.798Z,940.37
2018-08-08T12:26:08.789Z,940.39
2018-08-08T12:27:08.778Z,940.38
2018-08-08T12:28:08.769Z,940.41
2018-08-08T12:29:08.758Z,940.39
2018-08-08T12:30:08.749Z,940.39
2018-08-08T12:31:08.739Z,940.40
2018-08-08T12:32:08.730Z,940.39